»·PEaware :: N8SR KCCB-KVGT

N8SR :: KCCB-KVGT

FLIGHT INFORMATION

Flight Status: Arrived
Operator: Privately registered:
United States
More flights under this callsign
Pilot: Jim C. (23814)
Aircraft: Unknown
(P28U)
More flights by this aircraft type
Origin: KCCB Cable
United States
Destination: KVGT North Las Vegas
United States
More flights between these airports :: More routes between these airports
Route: +KCCB PDZ CAPTZ HEC WHIGG V283 BLD
File this flight plan on PilotEdge
Remarks:
Altitude:
(Current/Filed)
12,000ft
Speed:
(Current/Filed)
170kts
Departed: 05-Apr-20 04:03 PM
Arrived: 05-Apr-20 05:30 PM
Distance/Time
Traveled:
175nm/1:27
Distance/Time
To Go:
Arrived

Flight Plot

Page will automatically refresh every two minutes.


Map Options




Map Legend


Flown Route
Filed Route
Departure Airport
Arrival Airport
Navaid (VOR, NDB)
Fix

Horizontal Profiles

Position Reports

Time Latitude Longitude Heading Altitude Ground
Speed
05-Apr-20 15:34 34.113872 -117.682605 359 1445ft 0kts
05-Apr-20 15:35 34.113872 -117.682605 359 1445ft 0kts
05-Apr-20 15:36 34.113872 -117.682605 359 1445ft 0kts
05-Apr-20 15:37 34.113872 -117.682605 359 1445ft 0kts
05-Apr-20 15:38 34.113872 -117.682605 359 1445ft 0kts
05-Apr-20 15:39 34.113934 -117.681949 138 1445ft 0kts
05-Apr-20 15:40 34.113934 -117.681949 138 1445ft 0kts
05-Apr-20 15:41 34.113934 -117.681949 138 1445ft 0kts
05-Apr-20 15:42 34.113934 -117.681949 138 1445ft 0kts
05-Apr-20 15:43 34.113934 -117.681949 138 1445ft 0kts
05-Apr-20 15:44 34.113934 -117.681949 138 1445ft 0kts
05-Apr-20 15:45 34.113934 -117.681949 138 1445ft 0kts
05-Apr-20 15:46 34.113934 -117.681949 138 1445ft 0kts
05-Apr-20 15:47 34.113934 -117.681949 138 1445ft 0kts
05-Apr-20 15:48 34.113901 -117.681906 132 1445ft 1kts
05-Apr-20 15:49 34.113884 -117.681884 132 1445ft 0kts
05-Apr-20 15:50 34.113884 -117.681884 132 1445ft 0kts
05-Apr-20 15:51 34.113884 -117.681884 132 1445ft 0kts
05-Apr-20 15:52 34.113884 -117.681884 132 1445ft 0kts
05-Apr-20 15:53 34.113884 -117.681884 132 1445ft 0kts
05-Apr-20 15:54 34.113884 -117.681884 132 1445ft 0kts
05-Apr-20 15:55 34.113884 -117.681884 132 1445ft 0kts
05-Apr-20 15:56 34.113884 -117.681884 132 1445ft 0kts
05-Apr-20 15:57 34.113884 -117.681884 132 1445ft 0kts
05-Apr-20 15:58 34.113884 -117.681884 132 1445ft 0kts
05-Apr-20 15:59 34.113884 -117.681884 132 1445ft 0kts
05-Apr-20 16:00 34.113884 -117.681884 132 1445ft 0kts
05-Apr-20 16:02 34.113066 -117.682752 247 1445ft 40kts
05-Apr-20 16:03 34.100701 -117.700343 145 2399ft 81kts
05-Apr-20 16:04 34.083558 -117.683018 143 3544ft 95kts
05-Apr-20 16:05 34.060467 -117.657943 129 4267ft 122kts
05-Apr-20 16:06 34.035926 -117.629156 140 4967ft 124kts
05-Apr-20 16:07 34.008344 -117.604225 144 5668ft 123kts
05-Apr-20 16:08 33.980317 -117.580891 145 6366ft 122kts
05-Apr-20 16:09 33.952137 -117.557903 145 7067ft 122kts
05-Apr-20 16:10 33.926092 -117.532865 105 7756ft 122kts
05-Apr-20 16:11 33.948208 -117.506813 26 8443ft 121kts
05-Apr-20 16:12 33.978340 -117.488885 25 9143ft 120kts
05-Apr-20 16:13 34.008230 -117.471286 25 9841ft 119kts
05-Apr-20 16:14 34.038005 -117.453821 25 10541ft 119kts
05-Apr-20 16:15 34.069846 -117.435149 25 11001ft 140kts
05-Apr-20 16:16 34.106565 -117.413475 25 11000ft 150kts
05-Apr-20 16:17 34.144462 -117.391113 25 10999ft 151kts
05-Apr-20 16:18 34.182202 -117.368899 25 10999ft 151kts
05-Apr-20 16:18 34.213838 -117.350292 25 11000ft 152kts
05-Apr-20 16:20 34.258725 -117.323807 26 10999ft 154kts
05-Apr-20 16:21 34.292560 -117.293283 51 11000ft 154kts
05-Apr-20 16:21 34.314534 -117.259377 52 10999ft 154kts
05-Apr-20 16:22 34.340540 -117.217630 53 10999ft 154kts
05-Apr-20 16:24 34.369716 -117.169886 53 11183ft 152kts
05-Apr-20 16:24 34.390860 -117.135379 53 11183ft 154kts
05-Apr-20 16:25 34.416377 -117.093479 53 11183ft 154kts
05-Apr-20 16:27 34.446111 -117.044490 53 11183ft 154kts
05-Apr-20 16:27 34.467248 -117.009623 53 11182ft 154kts
05-Apr-20 16:28 34.492791 -116.967439 53 11182ft 153kts
05-Apr-20 16:29 34.517899 -116.925912 53 11182ft 152kts
05-Apr-20 16:30 34.542852 -116.884608 53 11183ft 152kts
05-Apr-20 16:31 34.567960 -116.842994 53 11183ft 152kts
05-Apr-20 16:32 34.592916 -116.801594 53 11183ft 152kts
05-Apr-20 16:33 34.617903 -116.760079 53 11183ft 152kts
05-Apr-20 16:34 34.642870 -116.718556 53 11183ft 152kts
05-Apr-20 16:35 34.667933 -116.676828 53 11183ft 152kts
05-Apr-20 16:36 34.692739 -116.635481 53 11183ft 152kts
05-Apr-20 16:37 34.717779 -116.593643 53 11183ft 152kts
05-Apr-20 16:38 34.742672 -116.552069 53 11183ft 152kts
05-Apr-20 16:39 34.767665 -116.510249 53 11183ft 153kts
05-Apr-20 16:40 34.792790 -116.467841 56 11182ft 155kts
05-Apr-20 16:41 34.807292 -116.418666 72 11182ft 154kts
05-Apr-20 16:42 34.820493 -116.368863 72 11182ft 155kts
05-Apr-20 16:43 34.843125 -116.325393 46 11182ft 154kts
05-Apr-20 16:44 34.873338 -116.288038 44 11183ft 154kts
05-Apr-20 16:45 34.903948 -116.251203 44 11183ft 155kts
05-Apr-20 16:46 34.934622 -116.214422 44 11183ft 155kts
05-Apr-20 16:47 34.965270 -116.177660 44 11183ft 155kts
05-Apr-20 16:48 34.995333 -116.140145 45 11183ft 155kts
05-Apr-20 16:49 35.025858 -116.103010 44 11183ft 155kts
05-Apr-20 16:50 35.056533 -116.066109 44 11183ft 155kts
05-Apr-20 16:51 35.087114 -116.029265 45 11182ft 155kts
05-Apr-20 16:52 35.117989 -115.992257 44 11182ft 155kts
05-Apr-20 16:53 35.148663 -115.955440 44 11183ft 155kts
05-Apr-20 16:54 35.179312 -115.918530 44 11183ft 155kts
05-Apr-20 16:55 35.209932 -115.881545 44 11183ft 155kts
05-Apr-20 16:56 35.240607 -115.844575 44 11183ft 155kts
05-Apr-20 16:57 35.271260 -115.807533 44 11183ft 155kts
05-Apr-20 16:58 35.301918 -115.770430 44 11183ft 155kts
05-Apr-20 16:59 35.333880 -115.731673 44 10656ft 165kts
05-Apr-20 17:00 35.366404 -115.692212 44 10241ft 160kts
05-Apr-20 17:01 35.397114 -115.654943 44 10237ft 154kts
05-Apr-20 17:02 35.427586 -115.617900 44 10237ft 154kts
05-Apr-20 17:03 35.457909 -115.580989 44 10237ft 154kts
05-Apr-20 17:04 35.488358 -115.543883 44 10237ft 154kts
05-Apr-20 17:05 35.518168 -115.505950 46 10237ft 154kts
05-Apr-20 17:06 35.548368 -115.465392 47 9739ft 164kts
05-Apr-20 17:07 35.578991 -115.424045 48 9238ft 163kts
05-Apr-20 17:08 35.609354 -115.382893 46 8765ft 161kts
05-Apr-20 17:09 35.639583 -115.344572 45 8076ft 152kts
05-Apr-20 17:10 35.668585 -115.307041 47 7374ft 150kts
05-Apr-20 17:11 35.695316 -115.271164 47 7246ft 136kts
05-Apr-20 17:12 35.721561 -115.235653 47 7247ft 144kts
05-Apr-20 17:13 35.754683 -115.210812 12 7246ft 145kts
05-Apr-20 17:14 35.794474 -115.201286 10 7247ft 145kts
05-Apr-20 17:15 35.834255 -115.191933 10 7247ft 145kts
05-Apr-20 17:16 35.874032 -115.182307 13 7246ft 145kts
05-Apr-20 17:17 35.912897 -115.168412 17 7247ft 145kts
05-Apr-20 17:18 35.951639 -115.153693 17 7247ft 145kts
05-Apr-20 17:19 35.990503 -115.139295 16 7247ft 145kts
05-Apr-20 17:20 36.026765 -115.126157 16 6651ft 130kts
05-Apr-20 17:21 36.062803 -115.113034 16 5774ft 129kts
05-Apr-20 17:22 36.090661 -115.102883 16 5749ft 105kts
05-Apr-20 17:23 36.116729 -115.096338 1 5121ft 109kts
05-Apr-20 17:24 36.148842 -115.095473 11 3769ft 116kts
05-Apr-20 17:25 36.179693 -115.093501 357 2993ft 107kts
05-Apr-20 17:26 36.208061 -115.102222 310 3225ft 100kts
05-Apr-20 17:27 36.212136 -115.139811 278 3180ft 118kts
05-Apr-20 17:28 36.213874 -115.176197 266 2602ft 91kts
05-Apr-20 17:29 36.213441 -115.195602 267 2208ft 30kts
05-Apr-20 17:30 36.213354 -115.199888 267 2208ft 0kts
05-Apr-20 17:31 36.213349 -115.199989 266 2208ft 0kts
05-Apr-20 17:32 36.212841 -115.203294 171 2208ft 0kts
05-Apr-20 17:33 36.212677 -115.201626 89 2208ft 0kts
05-Apr-20 17:34 36.209804 -115.198584 197 2208ft 9kts
05-Apr-20 17:35 36.209380 -115.198558 133 2208ft 0kts

Navigation Log

Ident Type
Flight plan parsing failed, navigation log unavailable